Aviation Digital Data Service (ADDS)

Output produced by METARs form (0336 UTC 12 February 2016)
found at http://aviationweather.gov/adds/metars/
 
KPBG 120226Z 1202/1224 29005KT P6SM SCT060 BKN100 
     FM120600 29005KT P6SM SCT050 
     FM121000 00000KT P6SM FEW050 SCT150 
     FM121800 16009KT P6SM VCSH BKN035